Time;durP1;ratioP1;P1;durP2;ratioP2;P2;SDS_P1;SDS_P2;PMS_P1;PMS_P2;Temp;Humidity;BMP_temperature;BMP_pressure;BME280_temperature;BME280_humidity;BME280_pressure;Samples;Min_cycle;Max_cycle;Signal;HPM_P1;HPM_P2
2022/10/10 00:02:12;;;;;;;1.50;1.40;;;22.40;42.30;;;;;;5005260;28;21960;-62
2022/10/10 00:04:38;;;;;;;1.30;1.20;;;22.40;42.30;;;;;;4998591;28;20227;-62
2022/10/10 00:07:03;;;;;;;1.47;1.37;;;22.40;42.30;;;;;;5010382;28;20230;-64
2022/10/10 00:09:29;;;;;;;1.50;1.40;;;22.40;42.30;;;;;;5009185;28;20216;-61
2022/10/10 00:11:55;;;;;;;1.30;1.20;;;22.40;42.30;;;;;;5003606;28;20215;-64
2022/10/10 00:14:20;;;;;;;1.30;1.20;;;22.40;42.30;;;;;;5014133;28;20241;-61
2022/10/10 00:16:46;;;;;;;1.43;1.33;;;22.40;42.30;;;;;;5017222;28;20222;-61
2022/10/10 00:19:11;;;;;;;1.43;1.33;;;22.40;42.40;;;;;;5013276;28;20246;-65
2022/10/10 00:21:37;;;;;;;1.67;1.50;;;22.40;42.40;;;;;;5013674;28;20223;-65
2022/10/10 00:24:03;;;;;;;1.23;1.07;;;22.40;42.30;;;;;;5006565;28;21152;-62
2022/10/10 00:26:28;;;;;;;1.23;1.13;;;22.40;42.40;;;;;;5008060;28;20231;-65
2022/10/10 00:28:54;;;;;;;2.20;1.30;;;22.40;42.30;;;;;;5004228;28;20465;-66
2022/10/10 00:31:20;;;;;;;1.43;1.30;;;22.40;42.40;;;;;;5008502;28;20230;-67
2022/10/10 00:33:46;;;;;;;1.40;1.30;;;22.40;43.10;;;;;;5011231;28;20725;-62
2022/10/10 00:36:12;;;;;;;1.30;1.20;;;22.40;42.40;;;;;;5017332;28;20265;-67
2022/10/10 00:38:37;;;;;;;1.93;1.20;;;22.40;42.40;;;;;;5008127;28;20259;-62
2022/10/10 00:41:03;;;;;;;1.33;1.23;;;22.40;42.40;;;;;;5006171;28;21669;-65
2022/10/10 00:43:29;;;;;;;1.33;1.23;;;22.40;42.40;;;;;;5011513;28;20306;-62
2022/10/10 00:45:55;;;;;;;1.17;1.10;;;22.40;42.40;;;;;;5008811;28;20227;-65
2022/10/10 00:48:26;;;;;;;1.60;1.50;;;22.40;42.40;;;;;;5007299;28;20473;-63
2022/10/10 00:50:51;;;;;;;1.30;1.20;;;22.40;42.40;;;;;;5015205;28;20276;-64
2022/10/10 00:53:21;;;;;;;1.30;1.20;;;22.40;42.40;;;;;;5015040;28;20456;-62
2022/10/10 00:55:47;;;;;;;1.40;1.30;;;22.30;42.40;;;;;;5015159;28;20300;-63
2022/10/10 00:58:14;;;;;;;1.37;1.27;;;22.40;42.40;;;;;;5015348;28;21309;-62
2022/10/10 01:00:40;;;;;;;1.40;1.30;;;22.40;42.40;;;;;;5015569;28;20219;-62
2022/10/10 01:03:05;;;;;;;1.43;1.30;;;22.40;42.40;;;;;;5014859;28;20460;-65
2022/10/10 01:05:31;;;;;;;1.50;1.40;;;22.40;42.40;;;;;;5013682;28;20219;-62
2022/10/10 01:07:58;;;;;;;1.33;1.23;;;22.40;42.40;;;;;;5009352;28;20225;-64
2022/10/10 01:10:24;;;;;;;1.80;1.20;;;22.30;42.30;;;;;;5020927;28;20464;-63
2022/10/10 01:13:08;;;;;;;1.73;1.63;;;22.40;42.40;;;;;;5013121;28;20469;-63
2022/10/10 01:15:51;;;;;;;1.67;1.30;;;22.40;42.40;;;;;;5013357;28;20509;-62
2022/10/10 01:18:43;;;;;;;1.20;1.10;;;22.40;42.40;;;;;;5010773;28;20475;-61
2022/10/10 01:21:37;;;;;;;1.60;1.50;;;22.40;42.40;;;;;;5018637;28;20506;-62
2022/10/10 01:24:21;;;;;;;1.40;1.30;;;22.30;42.30;;;;;;5000427;28;20499;-62
2022/10/10 01:27:15;;;;;;;1.33;1.23;;;22.30;42.40;;;;;;5014024;28;20554;-63
2022/10/10 01:29:43;;;;;;;1.80;1.70;;;22.30;42.40;;;;;;5013881;28;20464;-63
2022/10/10 01:32:31;;;;;;;1.50;1.40;;;22.30;42.40;;;;;;5013193;28;20998;-63
2022/10/10 01:35:09;;;;;;;1.30;1.20;;;22.30;42.50;;;;;;5015899;28;20448;-63
2022/10/10 01:38:00;;;;;;;1.43;1.33;;;22.30;42.40;;;;;;5012179;28;20492;-64
2022/10/10 01:40:32;;;;;;;3.27;1.30;;;22.30;42.30;;;;;;4998064;28;20497;-67
2022/10/10 01:43:02;;;;;;;1.37;1.27;;;22.30;42.50;;;;;;5008363;28;20479;-66
2022/10/10 01:45:30;;;;;;;1.30;1.20;;;22.40;42.50;;;;;;5008955;28;21039;-63
2022/10/10 01:47:58;;;;;;;1.23;1.13;;;22.30;42.30;;;;;;5010121;28;20464;-63
2022/10/10 01:50:25;;;;;;;1.40;1.30;;;22.30;42.60;;;;;;5016518;28;20507;-64
2022/10/10 01:53:13;;;;;;;1.20;1.10;;;22.30;42.40;;;;;;5018847;28;20533;-61
2022/10/10 01:56:01;;;;;;;1.30;1.20;;;22.30;42.40;;;;;;5017157;28;20462;-65
2022/10/10 01:58:58;;;;;;;1.60;1.50;;;22.30;42.50;;;;;;5019698;28;21054;-63
2022/10/10 02:02:09;;;;;;;1.50;1.40;;;22.30;42.40;;;;;;5011509;28;20841;-63
2022/10/10 02:04:42;;;;;;;1.30;1.20;;;22.30;42.40;;;;;;5004323;28;20463;-63
2022/10/10 02:07:31;;;;;;;1.30;1.20;;;22.30;42.40;;;;;;5012741;28;20773;-62
2022/10/10 02:09:59;;;;;;;1.33;1.23;;;22.30;42.40;;;;;;5006058;28;20470;-61
2022/10/10 02:12:27;;;;;;;1.20;1.10;;;22.30;42.50;;;;;;5008099;28;20462;-66
2022/10/10 02:14:58;;;;;;;1.30;1.20;;;22.30;42.40;;;;;;5007961;28;20456;-65
2022/10/10 02:17:25;;;;;;;1.50;1.40;;;22.30;42.40;;;;;;5015265;28;20941;-67
2022/10/10 02:19:55;;;;;;;1.20;1.10;;;22.30;42.40;;;;;;5008069;28;20453;-64
2022/10/10 02:22:23;;;;;;;1.60;1.50;;;22.30;42.40;;;;;;5012380;28;20467;-63
2022/10/10 02:24:51;;;;;;;1.40;1.30;;;22.30;42.50;;;;;;5013526;28;20971;-63
2022/10/10 02:27:20;;;;;;;1.30;1.20;;;22.30;42.50;;;;;;5018708;28;20979;-66
2022/10/10 02:29:47;;;;;;;2.13;1.10;;;22.30;42.40;;;;;;5015075;28;20471;-62
2022/10/10 02:32:28;;;;;;;1.40;1.30;;;22.30;42.40;;;;;;5009005;28;20452;-62
2022/10/10 02:34:57;;;;;;;1.50;1.40;;;22.30;42.40;;;;;;5008148;28;20474;-63
2022/10/10 02:37:24;;;;;;;1.50;1.40;;;22.30;42.50;;;;;;5004055;28;20455;-62
2022/10/10 02:39:55;;;;;;;1.40;1.30;;;22.30;42.40;;;;;;5008030;28;20453;-63
2022/10/10 02:42:22;;;;;;;1.20;1.10;;;22.30;42.40;;;;;;5016389;28;20468;-63
2022/10/10 02:44:49;;;;;;;1.20;1.10;;;22.30;42.40;;;;;;5019024;28;20543;-62
2022/10/10 02:47:14;;;;;;;1.40;1.30;;;22.30;42.40;;;;;;5023056;28;22250;-63
2022/10/10 02:49:40;;;;;;;1.27;1.17;;;22.30;42.40;;;;;;5020257;28;20462;-64
2022/10/10 02:52:06;;;;;;;1.37;1.27;;;22.30;42.50;;;;;;5020169;28;20673;-64
2022/10/10 02:54:31;;;;;;;1.10;1.10;;;22.30;42.40;;;;;;5008425;28;20223;-64
2022/10/10 02:56:57;;;;;;;1.60;1.50;;;22.30;42.40;;;;;;5022759;28;20222;-66
2022/10/10 02:59:22;;;;;;;1.30;1.20;;;22.30;42.40;;;;;;5014383;28;20241;-62
2022/10/10 03:01:48;;;;;;;1.30;1.20;;;22.30;42.50;;;;;;5003185;28;20227;-61
2022/10/10 03:04:14;;;;;;;0.93;0.93;;;22.30;42.50;;;;;;5019943;28;20276;-62
2022/10/10 03:06:39;;;;;;;1.40;1.30;;;22.30;42.50;;;;;;5016287;28;20234;-63
2022/10/10 03:09:05;;;;;;;1.27;1.17;;;22.30;42.50;;;;;;5012822;28;21544;-66
2022/10/10 03:11:31;;;;;;;1.30;1.20;;;22.30;42.40;;;;;;5016114;28;20241;-62
2022/10/10 03:13:56;;;;;;;1.40;1.30;;;22.30;42.40;;;;;;5014867;28;20222;-63
2022/10/10 03:16:22;;;;;;;1.00;1.00;;;22.30;42.40;;;;;;5010189;28;20214;-63
2022/10/10 03:18:47;;;;;;;1.57;1.17;;;22.30;42.50;;;;;;5016868;28;20239;-63
2022/10/10 03:21:13;;;;;;;1.40;1.30;;;22.30;42.50;;;;;;5014484;28;20218;-62
2022/10/10 03:23:39;;;;;;;1.20;1.10;;;22.30;42.50;;;;;;5012286;28;20222;-62
2022/10/10 03:26:05;;;;;;;1.40;1.30;;;22.30;42.40;;;;;;5010882;28;20285;-62
2022/10/10 03:28:30;;;;;;;1.17;1.07;;;22.30;42.50;;;;;;5014181;28;20227;-63
2022/10/10 03:30:56;;;;;;;1.20;1.10;;;22.30;42.50;;;;;;5011572;28;20218;-62
2022/10/10 03:33:22;;;;;;;1.30;1.20;;;22.30;42.40;;;;;;5021060;28;20219;-67
2022/10/10 03:35:47;;;;;;;3.33;1.17;;;22.30;42.40;;;;;;5021335;28;20707;-62
2022/10/10 03:38:13;;;;;;;1.20;1.10;;;22.30;42.40;;;;;;5015543;28;20318;-63
2022/10/10 03:40:40;;;;;;;1.20;1.10;;;22.30;42.40;;;;;;5016177;28;21141;-61
2022/10/10 03:43:07;;;;;;;1.27;1.17;;;22.30;42.40;;;;;;5015608;28;20226;-64
2022/10/10 03:45:33;;;;;;;1.73;1.63;;;22.30;42.30;;;;;;5020684;28;20992;-62
2022/10/10 03:47:59;;;;;;;1.20;1.10;;;22.30;42.40;;;;;;5015701;28;20545;-62
2022/10/10 03:50:24;;;;;;;1.70;1.20;;;22.30;42.50;;;;;;5007910;28;20233;-66
2022/10/10 03:52:50;;;;;;;1.20;1.10;;;22.30;42.80;;;;;;5015230;28;20683;-62
2022/10/10 03:55:15;;;;;;;1.20;1.10;;;22.30;42.40;;;;;;5019280;28;20229;-65
2022/10/10 03:57:41;;;;;;;1.27;1.17;;;22.30;42.40;;;;;;5013942;28;20237;-63
2022/10/10 04:00:08;;;;;;;1.37;1.27;;;22.30;42.50;;;;;;5015189;28;20223;-62
2022/10/10 04:02:33;;;;;;;1.17;1.07;;;22.30;42.50;;;;;;5003059;28;20225;-66
2022/10/10 04:04:59;;;;;;;1.17;1.07;;;22.30;42.40;;;;;;5013707;28;20460;-62
2022/10/10 04:07:24;;;;;;;1.20;1.10;;;22.30;42.40;;;;;;5022852;28;20250;-67
2022/10/10 04:09:50;;;;;;;1.07;1.00;;;22.30;42.40;;;;;;5017517;28;20251;-60
2022/10/10 04:12:16;;;;;;;1.30;1.20;;;22.30;42.30;;;;;;5020160;28;20265;-68
2022/10/10 04:14:41;;;;;;;1.20;1.10;;;22.30;42.30;;;;;;5015700;28;20705;-62
2022/10/10 04:17:07;;;;;;;1.30;1.20;;;22.30;42.50;;;;;;5015683;28;20215;-61
2022/10/10 04:19:32;;;;;;;1.27;1.17;;;22.30;42.40;;;;;;5018794;28;20234;-63
2022/10/10 04:21:58;;;;;;;1.30;1.20;;;22.30;42.40;;;;;;5012937;28;20222;-59
2022/10/10 04:24:23;;;;;;;1.30;1.20;;;22.30;42.40;;;;;;5021763;28;20241;-62
2022/10/10 04:26:49;;;;;;;1.17;1.07;;;22.30;42.40;;;;;;5013198;28;20253;-63
2022/10/10 04:29:14;;;;;;;1.20;1.10;;;22.30;42.40;;;;;;5017950;28;20261;-61
2022/10/10 04:31:40;;;;;;;1.30;1.20;;;22.30;42.40;;;;;;5014326;28;20659;-61
2022/10/10 04:34:06;;;;;;;1.20;1.10;;;22.30;42.40;;;;;;5014519;28;20772;-65
2022/10/10 04:36:31;;;;;;;1.20;1.10;;;22.30;42.30;;;;;;5010069;28;20701;-61
2022/10/10 04:38:58;;;;;;;1.30;1.20;;;22.30;42.40;;;;;;5016063;28;20674;-61
2022/10/10 04:41:23;;;;;;;1.60;1.20;;;22.30;42.40;;;;;;5009581;28;21512;-62
2022/10/10 04:43:49;;;;;;;1.20;1.10;;;22.30;42.30;;;;;;5009737;28;20551;-65
2022/10/10 04:46:15;;;;;;;1.20;1.10;;;22.30;42.30;;;;;;4999567;28;20230;-64
2022/10/10 04:48:40;;;;;;;1.00;0.90;;;22.30;42.40;;;;;;4997983;28;20584;-63
2022/10/10 04:51:06;;;;;;;1.00;1.00;;;22.30;42.40;;;;;;5016461;28;20262;-65
2022/10/10 04:53:31;;;;;;;1.47;1.20;;;22.30;42.40;;;;;;4995464;28;20290;-61
2022/10/10 04:55:57;;;;;;;1.57;1.47;;;22.30;42.40;;;;;;4998816;28;20698;-62
2022/10/10 04:58:22;;;;;;;1.80;1.40;;;22.30;42.30;;;;;;5011275;28;20237;-62
2022/10/10 05:00:52;;;;;;;1.20;1.10;;;22.30;42.30;;;;;;5006382;28;20214;-63
2022/10/10 05:03:18;;;;;;;1.30;1.20;;;22.30;42.30;;;;;;5009061;28;20733;-66
2022/10/10 05:05:43;;;;;;;1.40;1.30;;;22.30;42.30;;;;;;5010916;28;20440;-66
2022/10/10 05:08:09;;;;;;;1.23;1.20;;;22.30;42.30;;;;;;5005148;28;20226;-64
2022/10/10 05:10:37;;;;;;;0.90;0.90;;;22.40;42.40;;;;;;5011656;28;21919;-63
2022/10/10 05:13:03;;;;;;;1.40;1.30;;;22.40;42.40;;;;;;5013572;28;20225;-65
2022/10/10 05:15:28;;;;;;;1.20;1.10;;;22.40;42.40;;;;;;5010469;28;20461;-63
2022/10/10 05:17:54;;;;;;;1.30;1.20;;;22.40;42.40;;;;;;5010538;28;20245;-61
2022/10/10 05:20:19;;;;;;;1.60;1.33;;;22.40;42.30;;;;;;5015140;28;23112;-62
2022/10/10 05:22:45;;;;;;;1.23;1.13;;;22.40;42.30;;;;;;5008761;28;20801;-61
2022/10/10 05:25:11;;;;;;;1.30;1.20;;;22.40;42.40;;;;;;5006405;28;20273;-62
2022/10/10 05:27:36;;;;;;;1.27;1.17;;;22.40;42.40;;;;;;5003879;28;20306;-65
2022/10/10 05:30:03;;;;;;;1.13;1.03;;;22.40;42.30;;;;;;5012563;28;20266;-63
2022/10/10 05:32:29;;;;;;;1.60;1.50;;;22.40;42.40;;;;;;5011653;28;20313;-63
2022/10/10 05:34:54;;;;;;;1.30;1.20;;;22.40;42.40;;;;;;5011548;28;20867;-63
2022/10/10 05:37:20;;;;;;;1.30;1.20;;;22.40;42.30;;;;;;5020392;28;20222;-63
2022/10/10 05:39:46;;;;;;;1.30;1.20;;;22.40;42.30;;;;;;5018106;28;20223;-64
2022/10/10 05:42:12;;;;;;;1.30;1.20;;;22.40;42.40;;;;;;5020190;28;20231;-67
2022/10/10 05:44:38;;;;;;;1.30;1.20;;;22.40;42.30;;;;;;5017663;28;20545;-63
2022/10/10 05:47:04;;;;;;;1.30;1.20;;;22.40;42.30;;;;;;5016196;28;21079;-63
2022/10/10 05:49:29;;;;;;;1.10;1.00;;;22.40;42.40;;;;;;5014597;28;20226;-63
2022/10/10 05:51:55;;;;;;;1.40;1.30;;;22.40;42.30;;;;;;5014947;28;20226;-64
2022/10/10 05:54:21;;;;;;;1.30;1.20;;;22.40;42.30;;;;;;5013470;28;20696;-64
2022/10/10 05:56:46;;;;;;;1.27;1.17;;;22.40;42.30;;;;;;5011378;28;20226;-66
2022/10/10 05:59:12;;;;;;;1.40;1.30;;;22.40;43.10;;;;;;5020008;28;20250;-63
2022/10/10 06:01:37;;;;;;;1.57;1.33;;;22.40;42.30;;;;;;5019620;28;20222;-63
2022/10/10 06:04:03;;;;;;;5.20;1.50;;;22.40;42.30;;;;;;5009270;28;20227;-62
2022/10/10 06:06:29;;;;;;;1.30;1.20;;;22.40;42.30;;;;;;5013109;28;20221;-63
2022/10/10 06:08:54;;;;;;;1.30;1.20;;;22.40;42.30;;;;;;5018048;28;20230;-63
2022/10/10 06:11:22;;;;;;;1.50;1.40;;;22.40;42.30;;;;;;5019827;28;20223;-62
2022/10/10 06:13:52;;;;;;;1.30;1.20;;;22.40;42.30;;;;;;5005631;28;20219;-63
2022/10/10 06:16:22;;;;;;;1.27;1.17;;;22.40;42.30;;;;;;5021035;28;20537;-61
2022/10/10 06:18:48;;;;;;;1.13;1.10;;;22.40;42.30;;;;;;5021875;28;20565;-65
2022/10/10 06:21:14;;;;;;;1.37;1.27;;;22.40;42.30;;;;;;5023713;28;20939;-61
2022/10/10 06:23:40;;;;;;;1.93;1.40;;;22.40;42.30;;;;;;5018803;28;20238;-62
2022/10/10 06:26:06;;;;;;;1.97;1.40;;;22.40;42.30;;;;;;5018226;28;20734;-61
2022/10/10 06:28:31;;;;;;;1.43;1.33;;;22.40;42.30;;;;;;5016775;28;20479;-61
2022/10/10 06:31:03;;;;;;;1.30;1.20;;;22.40;42.30;;;;;;5012827;28;20218;-61
2022/10/10 06:33:29;;;;;;;1.10;1.10;;;22.40;42.30;;;;;;5017832;28;20214;-63
2022/10/10 06:35:54;;;;;;;1.57;1.47;;;22.40;42.30;;;;;;5018362;28;20509;-63
2022/10/10 06:38:20;;;;;;;1.53;1.43;;;22.40;42.30;;;;;;5011342;28;20464;-67
2022/10/10 06:40:46;;;;;;;1.30;1.20;;;22.50;42.40;;;;;;5020275;28;20334;-65
2022/10/10 06:43:14;;;;;;;1.07;1.00;;;22.50;42.30;;;;;;5015909;28;20218;-66
2022/10/10 06:45:43;;;;;;;1.20;1.10;;;22.50;42.30;;;;;;5023010;28;20225;-63
2022/10/10 06:48:09;;;;;;;1.27;1.17;;;22.50;42.20;;;;;;5020856;28;20522;-63
2022/10/10 06:50:36;;;;;;;1.50;1.40;;;22.50;42.20;;;;;;5020416;28;21341;-62
2022/10/10 06:53:02;;;;;;;1.30;1.20;;;22.50;42.10;;;;;;5011030;28;20539;-61
2022/10/10 06:55:28;;;;;;;1.30;1.20;;;22.50;42.10;;;;;;5011175;28;20520;-61
2022/10/10 06:57:53;;;;;;;1.53;1.33;;;22.60;42.10;;;;;;5016114;28;20488;-63
2022/10/10 07:00:19;;;;;;;1.23;1.13;;;22.60;42.10;;;;;;5014603;28;20215;-62
2022/10/10 07:02:44;;;;;;;1.57;1.47;;;22.60;42.10;;;;;;5021979;28;20309;-63
2022/10/10 07:05:12;;;;;;;4.80;2.00;;;22.60;42.10;;;;;;5021080;28;20231;-65
2022/10/10 07:07:40;;;;;;;1.30;1.20;;;22.60;42.10;;;;;;5021048;28;20234;-60
2022/10/10 07:10:09;;;;;;;1.30;1.20;;;22.60;42.10;;;;;;5015111;28;20467;-63
2022/10/10 07:12:34;;;;;;;1.10;1.03;;;22.60;42.00;;;;;;5018098;28;20984;-64
2022/10/10 07:15:00;;;;;;;1.57;1.33;;;22.60;42.10;;;;;;5020738;28;20447;-63
2022/10/10 07:17:25;;;;;;;1.27;1.17;;;22.60;42.10;;;;;;5016455;28;20283;-64
2022/10/10 07:19:51;;;;;;;1.40;1.30;;;22.60;42.10;;;;;;5020187;28;20219;-63
2022/10/10 07:22:17;;;;;;;1.50;1.40;;;22.60;42.10;;;;;;5015854;28;20589;-63
2022/10/10 07:24:43;;;;;;;1.23;1.13;;;22.60;42.10;;;;;;5021517;28;20257;-65
2022/10/10 07:27:08;;;;;;;1.57;1.47;;;22.60;42.10;;;;;;5010157;28;20463;-62
2022/10/10 07:29:34;;;;;;;1.23;1.13;;;22.60;42.10;;;;;;5016739;28;20277;-61
2022/10/10 07:31:59;;;;;;;1.30;1.20;;;22.60;42.00;;;;;;5013119;28;20641;-61
2022/10/10 07:34:25;;;;;;;1.40;1.30;;;22.60;42.00;;;;;;5010224;28;20309;-59
2022/10/10 07:36:51;;;;;;;1.43;1.33;;;22.60;42.00;;;;;;5017135;28;20227;-62
2022/10/10 07:39:21;;;;;;;1.50;1.40;;;22.60;42.00;;;;;;4991637;28;20888;-62
2022/10/10 07:41:48;;;;;;;1.87;1.20;;;22.60;42.00;;;;;;5008232;28;20270;-62
2022/10/10 07:44:14;;;;;;;1.37;1.27;;;22.60;42.00;;;;;;5002363;28;20478;-63
2022/10/10 07:46:39;;;;;;;2.30;1.30;;;22.60;42.00;;;;;;5013849;28;20464;-62
2022/10/10 07:49:05;;;;;;;1.40;1.30;;;22.60;42.00;;;;;;5010044;28;20749;-61
2022/10/10 07:51:30;;;;;;;1.33;1.23;;;22.60;42.00;;;;;;5013301;28;20313;-61
2022/10/10 07:53:56;;;;;;;1.50;1.40;;;22.60;42.00;;;;;;5009642;28;20309;-60
2022/10/10 07:56:22;;;;;;;1.43;1.33;;;22.60;42.00;;;;;;5015021;28;20219;-61
2022/10/10 07:58:48;;;;;;;1.30;1.20;;;22.60;42.00;;;;;;5011069;28;20792;-61
2022/10/10 08:01:13;;;;;;;1.40;1.30;;;22.60;42.00;;;;;;5009805;28;20258;-63
2022/10/10 08:03:39;;;;;;;1.30;1.20;;;22.60;42.00;;;;;;5012064;28;20301;-61
2022/10/10 08:06:07;;;;;;;1.20;1.10;;;22.60;42.00;;;;;;5010858;28;20298;-65
2022/10/10 08:08:34;;;;;;;1.50;1.40;;;22.60;42.00;;;;;;5012011;28;20313;-60
2022/10/10 08:10:59;;;;;;;1.30;1.20;;;22.60;42.00;;;;;;5001688;28;21198;-65
2022/10/10 08:13:26;;;;;;;1.60;1.50;;;22.60;42.00;;;;;;5009696;28;20521;-60
2022/10/10 08:15:52;;;;;;;3.20;1.57;;;22.60;42.10;;;;;;5010191;28;20215;-63
2022/10/10 08:18:18;;;;;;;1.43;1.33;;;22.60;42.00;;;;;;5010458;28;20545;-60
2022/10/10 08:20:44;;;;;;;1.37;1.27;;;22.60;42.00;;;;;;5004951;28;20460;-66
2022/10/10 08:23:09;;;;;;;1.30;1.20;;;22.60;42.10;;;;;;5010103;28;20220;-60
2022/10/10 08:25:35;;;;;;;1.63;1.30;;;22.60;42.10;;;;;;5010488;28;20246;-65
2022/10/10 08:28:01;;;;;;;1.40;1.30;;;22.60;42.10;;;;;;5012787;28;20309;-64
2022/10/10 08:30:26;;;;;;;1.60;1.50;;;22.60;42.10;;;;;;5006678;28;20219;-62
2022/10/10 08:32:52;;;;;;;1.50;1.40;;;22.60;42.10;;;;;;5007167;28;20318;-60
2022/10/10 08:35:17;;;;;;;1.60;1.50;;;22.60;42.20;;;;;;5007746;28;20266;-65
2022/10/10 08:37:43;;;;;;;1.40;1.30;;;22.60;42.10;;;;;;5013452;28;20515;-61
2022/10/10 08:40:14;;;;;;;1.30;1.20;;;22.60;42.10;;;;;;5001440;28;20339;-60
2022/10/10 08:42:45;;;;;;;1.60;1.50;;;22.60;42.10;;;;;;5014451;28;20229;-66
2022/10/10 08:45:18;;;;;;;1.47;1.33;;;22.60;42.10;;;;;;4983699;28;20458;-66
2022/10/10 08:47:46;;;;;;;1.90;1.20;;;22.60;42.10;;;;;;4985815;28;20465;-59
2022/10/10 08:50:17;;;;;;;1.93;1.40;;;22.60;42.20;;;;;;5004018;28;21148;-63
2022/10/10 08:52:53;;;;;;;1.60;1.43;;;22.60;42.10;;;;;;5008041;28;20464;-60
2022/10/10 08:55:29;;;;;;;1.40;1.30;;;22.60;42.10;;;;;;5007115;28;20558;-65
2022/10/10 08:58:22;;;;;;;1.40;1.27;;;22.60;42.10;;;;;;5011796;28;20484;-60
2022/10/10 09:00:58;;;;;;;1.70;1.60;;;22.60;42.10;;;;;;4999891;28;20543;-60
2022/10/10 09:03:35;;;;;;;1.73;1.20;;;22.60;42.10;;;;;;5002434;28;20525;-63
2022/10/10 09:06:20;;;;;;;2.37;1.60;;;22.60;42.10;;;;;;5009750;28;20514;-61
2022/10/10 09:09:24;;;;;;;1.87;1.77;;;22.60;42.10;;;;;;5003344;28;20452;-61
2022/10/10 09:12:01;;;;;;;1.30;1.20;;;22.60;42.00;;;;;;5000635;28;21637;-61
2022/10/10 09:15:04;;;;;;;1.40;1.30;;;22.60;42.00;;;;;;5010298;28;21097;-61
2022/10/10 09:17:36;;;;;;;2.10;1.53;;;22.60;41.90;;;;;;4999483;28;20464;-66
2022/10/10 09:20:26;;;;;;;2.50;1.90;;;22.60;41.80;;;;;;5005013;28;20461;-59
2022/10/10 09:23:22;;;;;;;1.67;1.57;;;22.60;41.50;;;;;;5001894;28;20474;-60
2022/10/10 09:25:56;;;;;;;1.60;1.50;;;22.60;41.50;;;;;;5004503;28;20464;-60
2022/10/10 09:28:46;;;;;;;1.50;1.40;;;22.60;41.50;;;;;;5003845;28;20558;-62
2022/10/10 09:31:32;;;;;;;2.80;1.70;;;22.70;41.60;;;;;;5008807;28;20468;-59
2022/10/10 09:34:21;;;;;;;1.60;1.50;;;22.70;41.60;;;;;;5003409;28;20496;-61
2022/10/10 09:36:47;;;;;;;1.50;1.40;;;22.70;41.60;;;;;;5007131;28;20476;-62
2022/10/10 09:39:42;;;;;;;1.93;1.63;;;22.70;41.40;;;;;;5018538;28;20467;-60
2022/10/10 09:42:16;;;;;;;1.60;1.50;;;22.70;41.40;;;;;;5007052;28;20229;-59
2022/10/10 09:44:42;;;;;;;9.83;1.47;;;22.70;41.50;;;;;;5006934;28;20468;-65
2022/10/10 09:47:12;;;;;;;1.60;1.50;;;22.70;41.50;;;;;;5004698;28;20449;-59
2022/10/10 09:49:38;;;;;;;2.60;1.80;;;22.70;41.60;;;;;;4998489;28;20844;-59
2022/10/10 09:52:24;;;;;;;4.07;1.60;;;22.70;41.60;;;;;;5004939;28;21091;-61
2022/10/10 09:55:00;;;;;;;3.63;1.63;;;22.70;41.60;;;;;;5008504;28;20360;-65
2022/10/10 09:57:32;;;;;;;2.40;1.67;;;22.70;41.60;;;;;;5007310;28;20468;-61
2022/10/10 09:59:58;;;;;;;1.33;1.23;;;22.70;41.60;;;;;;5010663;28;20510;-60
2022/10/10 10:02:26;;;;;;;1.80;1.70;;;22.70;41.60;;;;;;5003391;28;20846;-61
2022/10/10 10:04:53;;;;;;;2.83;1.87;;;22.70;41.60;;;;;;4999309;28;20433;-60
2022/10/10 10:07:46;;;;;;;2.30;1.50;;;22.70;41.60;;;;;;5008325;28;20452;-62
2022/10/10 10:10:21;;;;;;;1.57;1.47;;;22.70;41.60;;;;;;5008987;28;20463;-60
2022/10/10 10:12:47;;;;;;;1.60;1.50;;;22.70;41.60;;;;;;5002601;28;20463;-65
2022/10/10 10:15:28;;;;;;;1.80;1.63;;;22.70;41.60;;;;;;5014803;28;20456;-67
2022/10/10 10:18:16;;;;;;;1.60;1.50;;;22.70;41.60;;;;;;5009732;28;20231;-59
2022/10/10 10:20:50;;;;;;;1.90;1.60;;;22.70;41.60;;;;;;5010206;28;20960;-59
2022/10/10 10:23:35;;;;;;;1.77;1.67;;;22.70;41.60;;;;;;5012284;28;20451;-65
2022/10/10 10:26:14;;;;;;;1.80;1.50;;;22.70;41.60;;;;;;5005615;28;20469;-59
2022/10/10 10:28:41;;;;;;;1.63;1.53;;;22.70;41.60;;;;;;5007907;28;20452;-60
2022/10/10 10:31:19;;;;;;;1.73;1.60;;;22.70;41.60;;;;;;5009901;28;20455;-59
2022/10/10 10:34:01;;;;;;;1.43;1.33;;;22.70;41.60;;;;;;5001584;28;20475;-65
2022/10/10 10:36:59;;;;;;;2.30;1.60;;;22.70;41.60;;;;;;5009913;28;20503;-65
2022/10/10 10:39:36;;;;;;;1.87;1.77;;;22.60;41.50;;;;;;5010755;28;21001;-63
2022/10/10 10:42:27;;;;;;;1.40;1.30;;;22.60;41.50;;;;;;5005805;28;22014;-60
2022/10/10 10:45:13;;;;;;;1.60;1.50;;;22.60;41.50;;;;;;5010151;28;21014;-59
2022/10/10 10:48:19;;;;;;;1.63;1.53;;;22.60;41.50;;;;;;5009464;28;20468;-61
2022/10/10 10:50:55;;;;;;;1.50;1.40;;;22.60;41.50;;;;;;5003101;28;20475;-63
2022/10/10 10:53:45;;;;;;;1.70;1.60;;;22.60;41.50;;;;;;5005190;28;20532;-65
2022/10/10 10:56:17;;;;;;;1.80;1.57;;;22.60;41.50;;;;;;5008284;28;21082;-62
2022/10/10 10:58:54;;;;;;;1.70;1.60;;;22.60;41.50;;;;;;5000355;28;21042;-60
2022/10/10 11:01:46;;;;;;;1.70;1.60;;;22.60;41.60;;;;;;5017144;28;20462;-61
2022/10/10 11:04:33;;;;;;;1.73;1.53;;;22.60;41.60;;;;;;5019538;28;20467;-59
2022/10/10 11:07:14;;;;;;;2.13;1.70;;;22.60;41.60;;;;;;5011620;28;20475;-62
2022/10/10 11:09:44;;;;;;;1.47;1.37;;;22.60;41.60;;;;;;5017335;28;20495;-61
2022/10/10 11:12:24;;;;;;;1.83;1.40;;;22.60;41.80;;;;;;5007310;28;20986;-62
2022/10/10 11:15:12;;;;;;;1.50;1.40;;;22.60;41.80;;;;;;5003190;28;20464;-65
2022/10/10 11:18:02;;;;;;;1.60;1.50;;;22.60;41.80;;;;;;5015042;28;20456;-59
2022/10/10 11:20:33;;;;;;;1.73;1.53;;;22.60;41.80;;;;;;5003089;28;20555;-66
2022/10/10 11:23:11;;;;;;;1.47;1.37;;;22.60;41.80;;;;;;5013155;28;20548;-60
2022/10/10 11:25:43;;;;;;;1.50;1.40;;;22.60;41.90;;;;;;5012487;28;20479;-60
2022/10/10 11:28:20;;;;;;;2.53;1.50;;;22.60;41.90;;;;;;5015121;28;20459;-60
2022/10/10 11:30:53;;;;;;;1.60;1.50;;;22.60;41.90;;;;;;5012128;28;20472;-60
2022/10/10 11:33:25;;;;;;;1.90;1.80;;;22.50;41.80;;;;;;5007849;28;20476;-62
2022/10/10 11:36:14;;;;;;;1.70;1.60;;;22.60;42.00;;;;;;5010982;28;20856;-63
2022/10/10 11:39:15;;;;;;;1.73;1.63;;;22.50;41.80;;;;;;4995262;28;20476;-63
2022/10/10 11:41:51;;;;;;;1.57;1.43;;;22.50;41.90;;;;;;5012809;28;20458;-59
2022/10/10 11:44:26;;;;;;;2.47;1.80;;;22.50;41.90;;;;;;5014504;28;20478;-63
2022/10/10 11:46:59;;;;;;;1.40;1.30;;;22.50;42.00;;;;;;5011965;28;21097;-61
2022/10/10 11:49:32;;;;;;;1.67;1.57;;;22.50;42.00;;;;;;5004691;28;20461;-61
2022/10/10 11:52:36;;;;;;;1.50;1.40;;;22.50;42.00;;;;;;4999857;28;20468;-59
2022/10/10 11:55:11;;;;;;;2.50;1.67;;;22.50;42.00;;;;;;5012261;28;20835;-62
2022/10/10 11:57:52;;;;;;;1.60;1.50;;;22.50;42.00;;;;;;5014550;28;20464;-60
2022/10/10 12:00:18;;;;;;;1.53;1.43;;;22.50;42.00;;;;;;5006862;28;20468;-66
2022/10/10 12:02:45;;;;;;;4.00;1.30;;;22.50;42.00;;;;;;5006602;28;20455;-63
2022/10/10 12:05:23;;;;;;;2.00;1.80;;;22.50;42.00;;;;;;5011334;28;20465;-66
2022/10/10 12:08:12;;;;;;;2.37;1.60;;;22.50;42.10;;;;;;5011104;28;20948;-59
2022/10/10 12:10:44;;;;;;;1.67;1.57;;;22.50;42.00;;;;;;5010755;28;20461;-61
2022/10/10 12:13:31;;;;;;;2.40;1.60;;;22.50;42.10;;;;;;5004219;28;20456;-60
2022/10/10 12:16:01;;;;;;;1.47;1.37;;;22.50;42.10;;;;;;5010437;28;20525;-62
2022/10/10 12:18:45;;;;;;;1.50;1.37;;;22.50;42.10;;;;;;5012442;28;20893;-63
2022/10/10 12:21:16;;;;;;;1.70;1.40;;;22.50;42.90;;;;;;5016078;28;20853;-62
2022/10/10 12:23:47;;;;;;;1.70;1.60;;;22.50;42.10;;;;;;5010169;28;20465;-66
2022/10/10 12:26:16;;;;;;;1.97;1.87;;;22.50;42.10;;;;;;5010568;28;21152;-63
2022/10/10 12:29:05;;;;;;;2.40;1.40;;;22.50;42.10;;;;;;5013805;28;20465;-62
2022/10/10 12:31:34;;;;;;;1.80;1.70;;;22.50;42.10;;;;;;5010329;28;20536;-64
2022/10/10 12:34:15;;;;;;;1.70;1.60;;;22.50;42.10;;;;;;5015821;28;20536;-63
2022/10/10 12:36:52;;;;;;;1.50;1.40;;;22.50;42.10;;;;;;5009394;28;21442;-64
2022/10/10 12:39:18;;;;;;;1.80;1.70;;;22.50;42.10;;;;;;5016061;28;20846;-65
2022/10/10 12:41:49;;;;;;;1.70;1.60;;;22.50;42.20;;;;;;5014457;28;20460;-62
2022/10/10 12:44:41;;;;;;;2.17;1.80;;;22.50;42.20;;;;;;5013989;28;20218;-63
2022/10/10 12:47:13;;;;;;;2.23;2.13;;;22.50;42.10;;;;;;5004820;28;20471;-63
2022/10/10 12:49:52;;;;;;;1.90;1.80;;;22.50;42.20;;;;;;5010456;28;20483;-67
2022/10/10 12:52:23;;;;;;;2.10;2.00;;;22.50;42.20;;;;;;5013563;28;20525;-64
2022/10/10 12:54:50;;;;;;;2.03;1.93;;;22.50;42.20;;;;;;5009186;28;20467;-60
2022/10/10 12:57:29;;;;;;;3.13;2.23;;;22.50;42.30;;;;;;5012631;28;20488;-61
2022/10/10 12:59:54;;;;;;;2.80;2.60;;;22.50;42.30;;;;;;5000772;28;20469;-59
2022/10/10 13:02:26;;;;;;;2.40;2.30;;;22.50;42.30;;;;;;5008382;28;21073;-59
2022/10/10 13:04:56;;;;;;;3.00;2.80;;;22.50;42.30;;;;;;5011026;28;20262;-62
2022/10/10 13:07:23;;;;;;;4.00;3.20;;;22.50;42.30;;;;;;5010562;28;20487;-63
2022/10/10 13:09:51;;;;;;;3.50;3.20;;;22.50;42.30;;;;;;5014212;28;21092;-59